Time;durP1;ratioP1;P1;durP2;ratioP2;P2;SDS_P1;SDS_P2;PMS_P1;PMS_P2;Temp;Humidity;BMP_temperature;BMP_pressure;BME280_temperature;BME280_humidity;BME280_pressure;Samples;Min_cycle;Max_cycle;Signal;HPM_P1;HPM_P2
2022/09/14 00:01:51;;;;;;;4.30;3.33;;;;;;;;;;4979971;28;21136;-87
2022/09/14 00:04:19;;;;;;;3.53;3.23;;;18.40;99.90;;;;;;4992089;28;20473;-88
2022/09/14 00:06:46;;;;;;;6.50;3.10;;;18.20;99.90;;;;;;4989043;28;20472;-88
2022/09/14 00:09:18;;;;;;;4.20;3.17;;;18.20;99.90;;;;;;4964270;28;20476;-87
2022/09/14 00:11:44;;;;;;;4.60;2.77;;;;;;;;;;4987626;28;20504;-87
2022/09/14 00:14:10;;;;;;;5.10;2.80;;;;;;;;;;4991557;28;20473;-88
2022/09/14 00:16:39;;;;;;;3.90;2.80;;;17.90;99.90;;;;;;4989515;28;20468;-88
2022/09/14 00:19:16;;;;;;;5.43;2.77;;;17.90;99.90;;;;;;4990234;28;20525;-87
2022/09/14 00:21:42;;;;;;;4.10;2.70;;;17.90;99.90;;;;;;4982741;28;21464;-87
2022/09/14 00:24:10;;;;;;;6.17;2.23;;;17.80;99.90;;;;;;4987202;28;20467;-88
2022/09/14 00:26:36;;;;;;;3.23;2.30;;;17.90;99.90;;;;;;4996910;28;20270;-89
2022/09/14 00:29:03;;;;;;;5.53;3.53;;;17.80;99.90;;;;;;4997015;28;21502;-89
2022/09/14 00:31:29;;;;;;;7.70;3.90;;;;;;;;;;4987310;28;20433;-88
2022/09/14 00:33:55;;;;;;;4.80;2.73;;;;;;;;;;4999347;28;20445;-89
2022/09/14 00:36:25;;;;;;;4.50;3.50;;;18.00;99.90;;;;;;4998588;28;20441;-88
2022/09/14 00:38:51;;;;;;;2.80;2.60;;;18.10;99.90;;;;;;4984229;28;20438;-88
2022/09/14 00:41:20;;;;;;;3.07;2.77;;;18.10;99.90;;;;;;4998403;28;20483;-87
2022/09/14 00:43:51;;;;;;;6.43;3.80;;;18.10;99.90;;;;;;5000322;28;20538;-89
2022/09/14 00:46:17;;;;;;;9.57;3.43;;;18.10;99.90;;;;;;5000333;28;20976;-88
2022/09/14 00:48:43;;;;;;;5.50;3.13;;;;;;;;;;4997104;28;20433;-89
2022/09/14 00:51:09;;;;;;;9.03;3.27;;;;;;;;;;4997294;28;20197;-89
2022/09/14 00:53:34;;;;;;;8.30;4.47;;;18.10;99.90;;;;;;4989122;28;20445;-86
2022/09/14 00:56:00;;;;;;;5.83;3.23;;;18.20;99.90;;;;;;4981086;28;20477;-88
2022/09/14 00:58:26;;;;;;;4.80;3.00;;;;;;;;;;4989654;28;20195;-88
2022/09/14 01:00:53;;;;;;;10.80;3.20;;;18.40;99.90;;;;;;4994904;28;20194;-87
2022/09/14 01:03:19;;;;;;;3.23;2.70;;;18.40;99.90;;;;;;4995786;28;20465;-87
2022/09/14 01:06:07;;;;;;;3.33;2.67;;;18.40;99.90;;;;;;4992576;28;20999;-89
2022/09/14 01:08:36;;;;;;;4.77;2.70;;;18.50;99.90;;;;;;4975995;28;20445;-88
2022/09/14 01:11:45;;;;;;;8.47;3.37;;;18.50;99.90;;;;;;4996697;28;20454;-86
2022/09/14 01:14:15;;;;;;;2.87;2.60;;;18.40;99.90;;;;;;4998100;28;20483;-87
2022/09/14 01:16:46;;;;;;;5.93;3.60;;;18.50;99.90;;;;;;4992494;28;20983;-87
2022/09/14 01:19:37;;;;;;;5.87;4.17;;;18.40;99.90;;;;;;4986168;28;20520;-88
2022/09/14 01:22:12;;;;;;;4.40;3.30;;;18.20;99.90;;;;;;4989338;28;20496;-88
2022/09/14 01:24:50;;;;;;;4.83;3.47;;;18.10;99.90;;;;;;4999076;28;20516;-88
2022/09/14 01:27:22;;;;;;;5.17;3.40;;;18.10;99.90;;;;;;4988565;28;21151;-88
2022/09/14 01:30:07;;;;;;;6.13;3.23;;;18.10;99.90;;;;;;4982726;28;20446;-87
2022/09/14 01:32:43;;;;;;;5.30;2.93;;;18.10;99.90;;;;;;4977229;28;23427;-88
2022/09/14 01:35:15;;;;;;;5.87;2.67;;;18.10;99.90;;;;;;4989686;28;20461;-88
2022/09/14 01:37:50;;;;;;;3.23;2.67;;;18.20;99.90;;;;;;4974888;28;20440;-87
2022/09/14 01:40:21;;;;;;;4.33;3.10;;;18.20;99.90;;;;;;4972680;28;20445;-87
2022/09/14 01:42:52;;;;;;;5.20;2.90;;;18.20;99.90;;;;;;4990534;28;20497;-87
2022/09/14 01:45:21;;;;;;;10.23;3.10;;;18.30;99.90;;;;;;4994521;28;20507;-86
2022/09/14 01:47:52;;;;;;;5.10;3.17;;;18.40;99.90;;;;;;4992813;28;20815;-87
2022/09/14 01:50:24;;;;;;;7.90;3.57;;;18.00;99.90;;;;;;4991711;28;20441;-88
2022/09/14 01:52:58;;;;;;;3.77;3.33;;;17.90;99.90;;;;;;4985422;28;20457;-87
2022/09/14 01:55:32;;;;;;;4.80;3.30;;;17.80;99.90;;;;;;5000357;28;20902;-87
2022/09/14 01:57:58;;;;;;;6.00;3.00;;;;;;;;;;4992466;28;20420;-87
2022/09/14 02:00:24;;;;;;;7.60;3.80;;;17.70;99.90;;;;;;4983820;28;20478;-88
2022/09/14 02:03:11;;;;;;;9.00;4.40;;;17.70;99.90;;;;;;4992772;28;20557;-88
2022/09/14 02:05:56;;;;;;;10.00;4.77;;;17.70;99.90;;;;;;4991310;28;20183;-89
2022/09/14 02:08:25;;;;;;;8.90;4.57;;;17.50;99.90;;;;;;4980680;28;20433;-88
2022/09/14 02:10:51;;;;;;;9.20;4.47;;;;;;;;;;4978838;28;20445;-90
2022/09/14 02:13:17;;;;;;;6.63;4.13;;;;;;;;;;4991753;28;20511;-89
2022/09/14 02:15:43;;;;;;;8.27;4.37;;;;;;;;;;4983550;28;20472;-88
2022/09/14 02:18:09;;;;;;;4.87;4.07;;;;;;;;;;4994859;28;20486;-89
2022/09/14 02:20:52;;;;;;;5.70;4.23;;;17.10;99.90;;;;;;4984909;28;20442;-89
2022/09/14 02:23:18;;;;;;;7.67;5.00;;;17.00;99.90;;;;;;4994130;28;20449;-88
2022/09/14 02:25:45;;;;;;;9.53;6.03;;;17.00;99.90;;;;;;4994185;28;20461;-88
2022/09/14 02:28:12;;;;;;;8.87;6.30;;;17.00;99.90;;;;;;5016718;28;20190;-90
2022/09/14 02:30:52;;;;;;;12.90;6.30;;;17.10;99.90;;;;;;5012852;28;20472;-90
2022/09/14 02:33:26;;;;;;;7.83;5.37;;;17.20;99.90;;;;;;5000999;28;20458;-90
2022/09/14 02:35:54;;;;;;;9.60;6.40;;;17.20;99.90;;;;;;4978901;28;20477;-89
2022/09/14 02:38:55;;;;;;;8.47;6.17;;;17.30;99.90;;;;;;4997507;28;20443;-89
2022/09/14 02:41:21;;;;;;;19.73;6.50;;;;;;;;;;4915140;28;20444;-90
2022/09/14 02:44:13;;;;;;;11.57;7.33;;;17.20;99.90;;;;;;5012977;28;20556;-90
2022/09/14 02:47:01;;;;;;;14.77;7.63;;;17.20;99.90;;;;;;4998884;28;20488;-89
2022/09/14 02:49:58;;;;;;;35.07;10.20;;;17.20;99.90;;;;;;4965317;28;20521;-88
2022/09/14 02:52:32;;;;;;;12.03;7.97;;;17.30;99.90;;;;;;4994584;28;21078;-90
2022/09/14 02:55:11;;;;;;;12.13;7.63;;;17.30;99.90;;;;;;4990548;28;20461;-90
2022/09/14 02:58:01;;;;;;;10.73;7.30;;;17.30;99.90;;;;;;4990653;28;20511;-90
2022/09/14 03:00:27;;;;;;;15.40;8.87;;;17.30;99.90;;;;;;4983362;28;21045;-89
2022/09/14 03:02:53;;;;;;;10.40;7.73;;;17.10;99.90;;;;;;4995394;28;20547;-89
2022/09/14 03:05:19;;;;;;;11.57;8.50;;;17.10;99.90;;;;;;4979035;28;20525;-90
2022/09/14 03:07:45;;;;;;;14.33;8.97;;;;;;;;;;4975708;28;20187;-90
2022/09/14 03:10:11;;;;;;;19.90;8.57;;;;;;;;;;4983849;28;20541;-89
2022/09/14 03:12:37;;;;;;;20.80;9.50;;;17.00;99.90;;;;;;4981325;28;20475;-89
2022/09/14 03:15:04;;;;;;;14.40;9.23;;;17.00;99.90;;;;;;4982796;28;20608;-90
2022/09/14 03:17:30;;;;;;;13.40;9.10;;;;;;;;;;4985551;28;20454;-90
2022/09/14 03:19:56;;;;;;;13.63;9.10;;;;;;;;;;4985670;28;20484;-88
2022/09/14 03:22:22;;;;;;;13.20;8.67;;;;;;;;;;4983484;28;20461;-90
2022/09/14 03:24:48;;;;;;;16.40;9.20;;;17.20;99.90;;;;;;4996615;28;20464;-90
2022/09/14 03:27:13;;;;;;;21.60;9.90;;;17.20;99.90;;;;;;4995760;28;20472;-89
2022/09/14 03:29:39;;;;;;;12.20;9.40;;;;;;;;;;4980393;28;20229;-89
2022/09/14 03:32:05;;;;;;;14.13;10.03;;;;;;;;;;4997087;28;20217;-89
2022/09/14 03:34:31;;;;;;;13.87;10.43;;;16.80;99.90;;;;;;4983843;28;20469;-89
2022/09/14 03:36:57;;;;;;;12.73;10.70;;;;;;;;;;4995691;28;20446;-89
2022/09/14 03:39:23;;;;;;;13.50;10.63;;;;;;;;;;4992503;28;20191;-88
2022/09/14 03:41:49;;;;;;;11.83;10.47;;;;;;;;;;4983745;28;20445;-89
2022/09/14 03:44:15;;;;;;;17.87;9.87;;;;;;;;;;4977550;28;20813;-90
2022/09/14 03:46:43;;;;;;;14.40;11.00;;;17.00;99.90;;;;;;4991547;28;20517;-89
2022/09/14 03:49:09;;;;;;;19.73;11.03;;;;;;;;;;4993223;28;20449;-89
2022/09/14 03:51:34;;;;;;;16.10;10.53;;;;;;;;;;4992389;28;20946;-89
2022/09/14 03:54:01;;;;;;;20.77;10.57;;;;;;;;;;4988964;28;20453;-88
2022/09/14 03:56:27;;;;;;;16.70;11.17;;;;;;;;;;4971240;28;20447;-88
2022/09/14 03:58:53;;;;;;;13.60;10.30;;;;;;;;;;4980978;28;20958;-89
2022/09/14 04:01:22;;;;;;;23.63;11.57;;;17.00;99.90;;;;;;4973741;28;20501;-89
2022/09/14 04:03:48;;;;;;;15.57;11.47;;;17.10;99.90;;;;;;4972935;28;20575;-89
2022/09/14 04:06:15;;;;;;;14.87;11.73;;;17.00;99.90;;;;;;4989710;28;20436;-89
2022/09/14 04:08:41;;;;;;;20.13;12.93;;;17.00;99.90;;;;;;4991040;28;20856;-89
2022/09/14 04:11:10;;;;;;;18.07;14.20;;;17.00;99.90;;;;;;4974161;28;20910;-90
2022/09/14 04:13:36;;;;;;;15.20;11.77;;;;;;;;;;4989683;28;20486;-90
2022/09/14 04:16:02;;;;;;;18.77;12.90;;;;;;;;;;4992810;28;20465;-88
2022/09/14 04:18:28;;;;;;;22.93;14.70;;;;;;;;;;4987673;28;20447;-87
2022/09/14 04:21:11;;;;;;;18.90;13.47;;;16.90;99.90;;;;;;4996136;28;20465;-88
2022/09/14 04:23:36;;;;;;;17.77;13.40;;;16.90;99.90;;;;;;4977979;28;20587;-86
2022/09/14 04:26:09;;;;;;;23.63;14.73;;;16.90;99.90;;;;;;4971729;28;20442;-87
2022/09/14 04:28:35;;;;;;;20.93;16.20;;;16.90;99.90;;;;;;4985183;28;20190;-87
2022/09/14 04:31:01;;;;;;;27.57;13.80;;;16.80;99.90;;;;;;4967912;28;20744;-86
2022/09/14 04:33:31;;;;;;;34.90;16.07;;;16.80;99.90;;;;;;4968213;28;20211;-86
2022/09/14 04:36:03;;;;;;;25.77;14.80;;;16.80;99.90;;;;;;4975384;28;20923;-86
2022/09/14 04:38:30;;;;;;;30.30;15.57;;;16.80;99.90;;;;;;4971082;28;20437;-87
2022/09/14 04:40:57;;;;;;;21.87;13.90;;;16.80;99.90;;;;;;4975363;28;20447;-89
2022/09/14 04:43:24;;;;;;;27.37;15.40;;;16.80;99.90;;;;;;4970518;28;20986;-89
2022/09/14 04:45:50;;;;;;;25.43;15.20;;;;;;;;;;4969427;28;20453;-89
2022/09/14 04:48:15;;;;;;;20.77;13.53;;;16.90;99.90;;;;;;4983210;28;20473;-89
2022/09/14 04:50:42;;;;;;;18.63;12.40;;;;;;;;;;5000368;28;20523;-89
2022/09/14 04:53:08;;;;;;;14.70;9.90;;;;;;;;;;4977298;28;21089;-89
2022/09/14 04:55:34;;;;;;;8.10;6.80;;;;;;;;;;4990344;28;20476;-89
2022/09/14 04:58:00;;;;;;;9.17;6.57;;;17.00;99.90;;;;;;4985070;28;20434;-88
2022/09/14 05:00:26;;;;;;;7.50;6.50;;;;;;;;;;4976588;28;20448;-88
2022/09/14 05:02:52;;;;;;;5.40;4.50;;;17.10;99.90;;;;;;4991231;28;20230;-89
2022/09/14 05:05:18;;;;;;;6.65;5.93;;;;;;;;;;4972887;28;20578;-87
2022/09/14 05:07:43;;;;;;;6.30;4.93;;;17.20;99.90;;;;;;4984629;28;20194;-87
2022/09/14 05:10:09;;;;;;;6.70;5.43;;;17.20;99.90;;;;;;4995753;28;20440;-88
2022/09/14 05:12:35;;;;;;;8.30;6.20;;;;;;;;;;5010676;28;20219;-89
2022/09/14 05:15:01;;;;;;;6.70;5.77;;;;;;;;;;4998627;28;20211;-89
2022/09/14 05:17:26;;;;;;;6.90;6.20;;;17.20;99.90;;;;;;4978263;28;20813;-89
2022/09/14 05:19:52;;;;;;;7.50;6.30;;;;;;;;;;4994683;28;20462;-88
2022/09/14 05:24:46;;;;;;;6.80;5.63;;;;;;;;;;5006339;28;20482;-84
2022/09/14 05:27:11;;;;;;;7.87;5.10;;;17.30;99.90;;;;;;4990836;28;20488;-83
2022/09/14 05:29:39;;;;;;;7.60;5.83;;;;;;;;;;4979292;28;20431;-84
2022/09/14 05:32:05;;;;;;;8.37;5.13;;;;;;;;;;4992186;28;20196;-83
2022/09/14 05:34:31;;;;;;;11.20;6.40;;;;;;;;;;4981514;28;21175;-82
2022/09/14 05:36:56;;;;;;;6.20;5.60;;;;;;;;;;4974571;28;20429;-84
2022/09/14 05:39:23;;;;;;;12.30;7.60;;;17.30;99.90;;;;;;4987246;28;20435;-86
2022/09/14 05:41:49;;;;;;;9.47;7.63;;;;;;;;;;5001259;28;20964;-85
2022/09/14 05:44:15;;;;;;;7.10;6.20;;;;;;;;;;4994934;28;20435;-84
2022/09/14 05:46:41;;;;;;;10.80;5.90;;;;;;;;;;4979896;28;20434;-83
2022/09/14 05:49:07;;;;;;;5.73;4.90;;;;;;;;;;5001826;28;20970;-82
2022/09/14 05:51:33;;;;;;;6.40;5.63;;;;;;;;;;5006765;28;20520;-82
2022/09/14 05:53:59;;;;;;;6.77;5.00;;;;;;;;;;4982813;28;20473;-87
2022/09/14 05:56:27;;;;;;;6.73;5.90;;;17.60;99.90;;;;;;4989206;28;20441;-84
2022/09/14 05:58:54;;;;;;;6.17;5.30;;;17.60;99.90;;;;;;4982668;28;21370;-85
2022/09/14 06:01:22;;;;;;;5.30;4.33;;;17.60;99.90;;;;;;4978709;28;20462;-85
2022/09/14 06:03:48;;;;;;;6.33;5.70;;;;;;;;;;4979601;28;20448;-84
2022/09/14 06:06:17;;;;;;;4.27;3.87;;;17.50;99.90;;;;;;4987257;28;20517;-84
2022/09/14 06:08:43;;;;;;;4.97;4.47;;;;;;;;;;4985731;28;20490;-85
2022/09/14 06:11:11;;;;;;;7.00;5.27;;;17.50;99.90;;;;;;4979939;28;20468;-85
2022/09/14 06:13:37;;;;;;;6.30;4.40;;;;;;;;;;4988979;28;20431;-84
2022/09/14 06:16:05;;;;;;;5.03;4.53;;;17.60;99.90;;;;;;4965154;28;20471;-86
2022/09/14 06:18:35;;;;;;;6.73;5.90;;;17.70;99.90;;;;;;4990068;28;20536;-86
2022/09/14 06:21:02;;;;;;;10.07;6.43;;;;;;;;;;4987869;28;20506;-87
2022/09/14 06:23:28;;;;;;;6.20;4.80;;;;;;;;;;4999222;28;20454;-86
2022/09/14 06:25:55;;;;;;;8.83;6.30;;;17.90;99.90;;;;;;4981364;28;20841;-85
2022/09/14 06:28:21;;;;;;;12.13;7.43;;;;;;;;;;4990695;28;20449;-83
2022/09/14 06:30:48;;;;;;;8.17;6.43;;;;;;;;;;4985618;28;20428;-83
2022/09/14 06:33:14;;;;;;;6.70;6.00;;;;;;;;;;4982534;28;20816;-86
2022/09/14 06:35:41;;;;;;;6.67;4.83;;;;;;;;;;4987244;28;20457;-84
2022/09/14 06:38:07;;;;;;;7.50;5.13;;;;;;;;;;4998863;28;20448;-87
2022/09/14 06:40:33;;;;;;;6.33;5.67;;;;;;;;;;4978200;28;20430;-84
2022/09/14 06:43:01;;;;;;;5.80;5.20;;;;;;;;;;5000771;28;20484;-84
2022/09/14 06:45:31;;;;;;;11.23;5.23;;;19.00;99.90;;;;;;5000766;28;20490;-82
2022/09/14 06:47:57;;;;;;;6.70;4.27;;;19.00;99.90;;;;;;4988784;28;20438;-83
2022/09/14 06:50:24;;;;;;;4.97;4.50;;;18.90;99.90;;;;;;5015799;28;20438;-83
2022/09/14 06:52:49;;;;;;;7.20;4.03;;;;;;;;;;4993319;28;20461;-83
2022/09/14 06:55:16;;;;;;;7.97;5.47;;;;;;;;;;5012054;28;21101;-82
2022/09/14 06:57:42;;;;;;;6.70;5.53;;;;;;;;;;4992670;28;20425;-83
2022/09/14 07:00:08;;;;;;;5.50;4.90;;;19.50;99.90;;;;;;4981486;28;20427;-83
2022/09/14 07:02:34;;;;;;;9.00;4.83;;;;;;;;;;4976314;28;20460;-84
2022/09/14 07:05:01;;;;;;;5.70;4.90;;;;;;;;;;5004030;28;20425;-84
2022/09/14 07:07:27;;;;;;;9.90;5.40;;;;;;;;;;5006494;28;20437;-82
2022/09/14 07:09:53;;;;;;;6.60;5.13;;;;;;;;;;4982916;28;20437;-83
2022/09/14 07:12:19;;;;;;;5.30;4.73;;;;;;;;;;4998323;28;20458;-84
2022/09/14 07:14:45;;;;;;;7.90;5.33;;;;;;;;;;4989897;28;20473;-84
2022/09/14 07:17:13;;;;;;;5.30;4.60;;;;;;;;;;4987072;28;20847;-85
2022/09/14 07:19:39;;;;;;;4.93;4.53;;;;;;;;;;4992128;28;20432;-84
2022/09/14 07:22:05;;;;;;;6.50;4.17;;;;;;;;;;4988643;28;20442;-85
2022/09/14 07:24:31;;;;;;;5.40;4.30;;;;;;;;;;4984736;28;20441;-86
2022/09/14 07:26:57;;;;;;;8.80;4.80;;;;;;;;;;4993477;28;20570;-84
2022/09/14 07:29:23;;;;;;;6.93;5.30;;;;;;;;;;4990249;28;20976;-83
2022/09/14 07:31:51;;;;;;;8.70;5.00;;;21.70;99.90;;;;;;4983209;28;20463;-83
2022/09/14 07:34:17;;;;;;;8.23;5.83;;;;;;;;;;4987073;28;20508;-86
2022/09/14 07:36:43;;;;;;;8.97;6.30;;;;;;;;;;5010469;28;20441;-81
2022/09/14 07:39:13;;;;;;;7.00;5.50;;;22.70;99.90;;;;;;4991307;28;20453;-80
2022/09/14 07:41:39;;;;;;;9.40;5.90;;;;;;;;;;5003698;28;20483;-85
2022/09/14 07:44:06;;;;;;;6.93;6.30;;;23.70;99.90;;;;;;4992749;28;20430;-82
2022/09/14 07:46:38;;;;;;;7.63;6.77;;;25.20;99.90;;;;;;4975644;28;20465;-84
2022/09/14 07:49:05;;;;;;;11.20;7.30;;;25.80;99.90;;;;;;4970501;28;20447;-87
2022/09/14 07:51:33;;;;;;;8.00;7.20;;;25.60;99.90;;;;;;5006149;28;20462;-83
2022/09/14 07:54:00;;;;;;;9.00;7.50;;;;;;;;;;4985054;28;20986;-85
2022/09/14 07:56:26;;;;;;;16.80;8.70;;;;;;;;;;4974635;28;20473;-84
2022/09/14 07:58:54;;;;;;;9.70;8.10;;;24.90;99.90;;;;;;4987840;28;20433;-84
2022/09/14 08:01:21;;;;;;;8.20;6.17;;;;;;;;;;4979308;28;20934;-84
2022/09/14 08:03:47;;;;;;;12.43;7.73;;;;;;;;;;4979932;28;20465;-82
2022/09/14 08:06:16;;;;;;;11.13;7.93;;;25.90;99.90;;;;;;5002566;28;20439;-86
2022/09/14 08:08:44;;;;;;;9.27;7.97;;;25.80;99.90;;;;;;4981831;28;20500;-85
2022/09/14 08:11:15;;;;;;;13.70;8.17;;;26.00;99.90;;;;;;4992691;28;20449;-86
2022/09/14 08:13:43;;;;;;;14.70;7.13;;;27.10;99.90;;;;;;4989562;28;20443;-85
2022/09/14 08:16:10;;;;;;;19.13;8.10;;;27.70;99.90;;;;;;4965451;28;20511;-86
2022/09/14 08:18:37;;;;;;;9.77;8.30;;;;;;;;;;4976501;28;20440;-84
2022/09/14 08:21:11;;;;;;;8.70;7.60;;;27.60;99.90;;;;;;4997553;28;20463;-85
2022/09/14 08:23:38;;;;;;;7.87;7.07;;;;;;;;;;4996635;28;20455;-82
2022/09/14 08:26:12;;;;;;;9.37;8.40;;;27.20;99.90;;;;;;4991118;28;20469;-84
2022/09/14 08:28:38;;;;;;;10.13;7.73;;;27.20;99.90;;;;;;4994102;28;20527;-82
2022/09/14 08:31:15;;;;;;;9.17;8.27;;;27.50;99.90;;;;;;4992966;28;20454;-84
2022/09/14 08:33:43;;;;;;;7.63;6.50;;;26.10;99.90;;;;;;4974852;28;20498;-85
2022/09/14 08:36:11;;;;;;;7.10;6.10;;;26.00;99.90;;;;;;4996650;28;20476;-88
2022/09/14 08:38:37;;;;;;;7.93;4.30;;;;;;;;;;4981096;28;20435;-84
2022/09/14 08:41:29;;;;;;;5.20;3.23;;;24.30;99.90;;;;;;4996676;28;20504;-84
2022/09/14 08:44:04;;;;;;;6.60;3.73;;;23.90;99.90;;;;;;4988046;28;20431;-84
2022/09/14 08:46:53;;;;;;;7.77;4.50;;;24.30;99.90;;;;;;4983759;28;20430;-87
2022/09/14 08:49:25;;;;;;;5.17;3.77;;;23.80;99.90;;;;;;4968973;28;20466;-84
2022/09/14 08:51:51;;;;;;;5.07;3.47;;;;;;;;;;4997862;28;20465;-87
2022/09/14 08:54:17;;;;;;;9.47;3.93;;;23.20;99.90;;;;;;4989713;28;20452;-85
2022/09/14 08:56:54;;;;;;;6.10;4.57;;;23.30;99.90;;;;;;4970204;28;20949;-85
2022/09/14 08:59:48;;;;;;;4.53;3.20;;;22.80;99.90;;;;;;4981997;28;20194;-84
2022/09/14 09:02:39;;;;;;;5.90;2.83;;;22.90;99.90;;;;;;4930779;28;21418;-84
2022/09/14 09:05:28;;;;;;;6.10;3.90;;;23.30;99.90;;;;;;4978864;28;20528;-87
2022/09/14 09:08:02;;;;;;;7.17;4.10;;;24.40;99.90;;;;;;4976105;28;20429;-84
2022/09/14 09:10:30;;;;;;;8.47;3.03;;;26.30;99.90;;;;;;4989029;28;20429;-85
2022/09/14 09:12:59;;;;;;;8.97;2.93;;;27.30;99.90;;;;;;4979817;28;20451;-87
2022/09/14 09:15:38;;;;;;;6.47;3.27;;;27.70;99.90;;;;;;4976594;28;20461;-84
2022/09/14 09:18:13;;;;;;;4.90;3.07;;;28.50;99.90;;;;;;4959172;28;20549;-86
2022/09/14 09:20:56;;;;;;;5.30;3.20;;;27.80;99.90;;;;;;4988371;28;20463;-85
2022/09/14 09:23:26;;;;;;;8.10;3.27;;;27.80;99.90;;;;;;4992287;28;20461;-87
2022/09/14 09:26:02;;;;;;;4.93;3.00;;;27.40;99.90;;;;;;5000772;28;20505;-87
2022/09/14 09:28:29;;;;;;;4.07;2.83;;;26.80;99.90;;;;;;4977128;28;20893;-83
2022/09/14 09:30:59;;;;;;;5.70;2.70;;;26.70;99.90;;;;;;4990182;28;20452;-84
2022/09/14 09:33:26;;;;;;;4.40;2.90;;;28.50;99.90;;;;;;4969752;28;20779;-85
2022/09/14 09:35:53;;;;;;;3.90;3.17;;;29.10;99.90;;;;;;4983970;28;20481;-89
2022/09/14 09:38:25;;;;;;;8.30;2.47;;;28.80;99.90;;;;;;5002686;28;21028;-85
2022/09/14 09:41:14;;;;;;;6.73;3.10;;;27.60;99.90;;;;;;4986036;28;20446;-88
2022/09/14 09:44:01;;;;;;;5.03;3.23;;;27.10;99.90;;;;;;4991085;28;20438;-84
2022/09/14 09:46:30;;;;;;;5.30;3.07;;;27.60;99.90;;;;;;4982677;28;20494;-86
2022/09/14 09:48:56;;;;;;;3.00;2.63;;;;;;;;;;4963651;28;20475;-86
2022/09/14 09:51:27;;;;;;;7.97;4.03;;;27.60;99.90;;;;;;4995438;28;20473;-82
2022/09/14 09:54:02;;;;;;;4.53;3.50;;;26.40;99.90;;;;;;4999889;28;21008;-85
2022/09/14 09:56:35;;;;;;;4.57;3.00;;;26.70;99.90;;;;;;4981202;28;20466;-86
2022/09/14 09:59:01;;;;;;;7.20;3.00;;;27.40;99.90;;;;;;4978486;28;20436;-86
2022/09/14 10:01:30;;;;;;;8.30;2.87;;;27.10;99.90;;;;;;4983287;28;20470;-85
2022/09/14 10:04:18;;;;;;;11.50;3.17;;;27.20;99.90;;;;;;4983658;28;20430;-87
2022/09/14 10:06:44;;;;;;;7.70;3.77;;;;;;;;;;4993016;28;20442;-84
2022/09/14 10:09:20;;;;;;;5.10;3.17;;;26.90;99.90;;;;;;5000179;28;20443;-86
2022/09/14 10:11:54;;;;;;;6.57;3.17;;;27.20;99.90;;;;;;4992643;28;20477;-86
2022/09/14 10:14:27;;;;;;;4.47;3.10;;;26.10;99.90;;;;;;4999866;28;20442;-82
2022/09/14 10:16:53;;;;;;;3.30;3.00;;;;;;;;;;4990835;28;20423;-81
2022/09/14 10:19:25;;;;;;;4.53;3.53;;;25.90;99.90;;;;;;4969202;28;21062;-87
2022/09/14 10:22:13;;;;;;;5.43;3.60;;;26.10;99.90;;;;;;5000711;28;20514;-84
2022/09/14 10:24:39;;;;;;;5.43;2.90;;;;;;;;;;5005283;28;20481;-84
2022/09/14 10:27:35;;;;;;;5.60;3.40;;;26.70;99.90;;;;;;4978087;28;20437;-88
2022/09/14 10:30:20;;;;;;;4.37;2.70;;;26.20;99.90;;;;;;4984658;28;20437;-88
2022/09/14 10:33:01;;;;;;;4.10;3.57;;;26.50;99.90;;;;;;4979334;28;20459;-88
2022/09/14 10:35:53;;;;;;;8.10;2.67;;;26.10;99.90;;;;;;4975331;28;20515;-84
2022/09/14 10:38:38;;;;;;;4.57;3.13;;;25.30;99.90;;;;;;4983568;28;20462;-84
2022/09/14 10:41:23;;;;;;;9.93;4.20;;;25.30;99.90;;;;;;4989736;28;20437;-81
2022/09/14 10:44:25;;;;;;;4.03;3.17;;;24.80;99.90;;;;;;4967736;28;21003;-86
2022/09/14 10:47:14;;;;;;;5.27;3.70;;;25.00;99.90;;;;;;4966236;28;20448;-84
2022/09/14 10:50:10;;;;;;;4.33;3.30;;;25.20;99.90;;;;;;4976418;28;20437;-84
2022/09/14 10:52:57;;;;;;;7.20;2.80;;;25.20;99.90;;;;;;4997028;28;20453;-89
2022/09/14 10:55:32;;;;;;;6.47;3.20;;;25.90;99.90;;;;;;4975889;28;20462;-84
2022/09/14 10:58:11;;;;;;;3.90;2.63;;;26.20;99.90;;;;;;4969387;28;21005;-85
2022/09/14 11:01:04;;;;;;;10.63;2.80;;;26.10;99.90;;;;;;4983770;28;20559;-83
2022/09/14 11:03:44;;;;;;;8.33;3.23;;;26.40;99.90;;;;;;4970812;28;20435;-85
2022/09/14 11:06:28;;;;;;;8.40;2.83;;;26.60;99.90;;;;;;4984822;28;20432;-86
2022/09/14 11:09:01;;;;;;;5.37;3.80;;;26.20;99.90;;;;;;4979787;28;20999;-85
2022/09/14 11:11:55;;;;;;;3.03;2.73;;;27.00;99.90;;;;;;4989899;28;20458;-85
2022/09/14 11:14:32;;;;;;;3.40;2.40;;;27.50;99.90;;;;;;4975114;28;20557;-84
2022/09/14 11:17:09;;;;;;;7.07;3.53;;;27.40;99.90;;;;;;4971971;28;20485;-88
2022/09/14 11:19:48;;;;;;;6.17;2.90;;;27.30;99.90;;;;;;4975906;28;21243;-84
2022/09/14 11:22:27;;;;;;;3.00;2.70;;;27.40;99.90;;;;;;4997164;28;20464;-82
2022/09/14 11:24:58;;;;;;;3.30;2.63;;;27.20;99.90;;;;;;4994656;28;20506;-84
2022/09/14 11:27:43;;;;;;;7.60;3.10;;;27.40;99.90;;;;;;4989591;28;22314;-84
2022/09/14 11:30:09;;;;;;;3.83;3.47;;;;;;;;;;4967033;28;21245;-84
2022/09/14 11:32:45;;;;;;;3.30;2.60;;;26.50;99.90;;;;;;4977173;28;21272;-84
2022/09/14 11:35:26;;;;;;;4.50;3.30;;;26.10;99.90;;;;;;4985942;28;20565;-87
2022/09/14 11:37:57;;;;;;;5.37;2.70;;;25.70;99.90;;;;;;4979757;28;20443;-85
2022/09/14 11:40:40;;;;;;;2.93;2.30;;;25.30;99.90;;;;;;4977524;28;20446;-84
2022/09/14 11:43:26;;;;;;;4.50;2.77;;;26.20;99.90;;;;;;4987597;28;20452;-86
2022/09/14 11:46:15;;;;;;;5.30;3.30;;;26.60;99.90;;;;;;4983727;28;20448;-87
2022/09/14 11:48:50;;;;;;;6.03;2.90;;;26.50;99.90;;;;;;4976257;28;20447;-81
2022/09/14 11:51:22;;;;;;;4.33;2.87;;;26.50;99.90;;;;;;4977170;28;20527;-83
2022/09/14 11:53:49;;;;;;;3.50;2.33;;;;;;;;;;4977957;28;20488;-84
2022/09/14 11:56:25;;;;;;;7.83;2.20;;;26.50;99.90;;;;;;4992839;28;20465;-82
2022/09/14 11:58:53;;;;;;;3.67;2.80;;;26.40;99.90;;;;;;4979311;28;20442;-83
2022/09/14 12:01:35;;;;;;;8.47;2.60;;;26.40;99.90;;;;;;4991440;28;20558;-83
2022/09/14 12:04:15;;;;;;;8.33;2.67;;;26.00;99.90;;;;;;5008471;23;20544;-87
2022/09/14 12:06:42;;;;;;;4.90;2.33;;;26.20;99.90;;;;;;5002430;28;20758;-86
2022/09/14 12:09:20;;;;;;;5.80;2.40;;;26.20;99.90;;;;;;4996513;28;20442;-86
2022/09/14 12:11:58;;;;;;;3.00;2.70;;;26.10;99.90;;;;;;5010388;28;20435;-86
2022/09/14 12:14:28;;;;;;;7.33;3.10;;;;;;;;;;4996390;28;20987;-86
2022/09/14 12:17:19;;;;;;;3.50;2.27;;;26.60;99.90;;;;;;4989580;28;20437;-85
2022/09/14 12:19:47;;;;;;;3.47;2.70;;;26.50;99.90;;;;;;4991905;28;21028;-86
2022/09/14 12:22:34;;;;;;;4.53;2.80;;;26.30;99.90;;;;;;4996650;28;20467;-87
2022/09/14 12:25:09;;;;;;;3.10;2.10;;;25.50;99.90;;;;;;4986072;28;20440;-86
2022/09/14 12:27:37;;;;;;;4.93;2.60;;;25.70;99.90;;;;;;4998673;28;20434;-85
2022/09/14 12:30:40;;;;;;;3.00;2.43;;;25.30;99.90;;;;;;5011375;28;20459;-88
2022/09/14 12:33:30;;;;;;;5.73;3.00;;;25.20;99.90;;;;;;4995683;28;20481;-88
2022/09/14 12:36:11;;;;;;;6.40;3.40;;;25.30;99.90;;;;;;4998078;28;20454;-88
2022/09/14 12:38:37;;;;;;;7.87;2.47;;;;;;;;;;4980351;28;20514;-87
2022/09/14 12:41:26;;;;;;;3.93;2.43;;;24.80;99.90;;;;;;4996522;28;20465;-87
2022/09/14 12:43:53;;;;;;;4.00;3.00;;;24.50;99.90;;;;;;4994788;28;21408;-87
2022/09/14 12:46:19;;;;;;;2.93;2.63;;;;;;;;;;4994692;28;20477;-85
2022/09/14 12:48:45;;;;;;;4.03;2.50;;;;;;;;;;4990797;28;20433;-86
2022/09/14 12:51:43;;;;;;;6.87;3.10;;;24.30;99.90;;;;;;4995831;28;20425;-86
2022/09/14 12:54:27;;;;;;;6.87;2.57;;;24.20;99.90;;;;;;4972840;28;20457;-86
2022/09/14 12:56:53;;;;;;;4.30;3.10;;;;;;;;;;4996212;28;20455;-87
2022/09/14 12:59:57;;;;;;;2.63;2.43;;;23.90;99.90;;;;;;4983807;28;20513;-86
2022/09/14 13:02:56;;;;;;;4.60;2.80;;;23.50;99.90;;;;;;4995513;28;20446;-87
2022/09/14 13:05:29;;;;;;;6.93;3.23;;;23.20;99.90;;;;;;4995058;28;20449;-86
2022/09/14 13:07:55;;;;;;;5.97;3.23;;;23.00;99.90;;;;;;4976338;28;20798;-86
2022/09/14 13:10:30;;;;;;;6.70;3.80;;;23.00;99.90;;;;;;4965607;28;20434;-86
2022/09/14 13:12:57;;;;;;;7.30;3.53;;;22.60;99.90;;;;;;4992393;28;20836;-86
2022/09/14 13:15:37;;;;;;;7.77;3.20;;;21.90;99.90;;;;;;4992368;28;20469;-85
2022/09/14 13:18:23;;;;;;;6.80;2.97;;;21.80;99.90;;;;;;4986482;28;20434;-87
2022/09/14 13:20:56;;;;;;;2.90;1.83;;;20.50;99.90;;;;;;4984335;28;21475;-86
2022/09/14 13:23:30;;;;;;;4.80;2.40;;;19.70;99.90;;;;;;5015272;28;20474;-86
2022/09/14 13:25:56;;;;;;;3.07;2.20;;;19.70;99.90;;;;;;4984519;28;20433;-85
2022/09/14 13:28:29;;;;;;;2.73;1.47;;;18.90;99.90;;;;;;4993568;28;20441;-87
2022/09/14 13:31:00;;;;;;;4.97;1.80;;;18.90;99.90;;;;;;5001976;28;20545;-87
2022/09/14 13:33:28;;;;;;;2.70;1.30;;;18.80;99.90;;;;;;4986843;28;20461;-88
2022/09/14 13:35:58;;;;;;;3.00;1.40;;;18.80;99.90;;;;;;4998624;28;21262;-88
2022/09/14 13:38:30;;;;;;;5.97;1.80;;;18.80;99.90;;;;;;4992103;28;20438;-88
2022/09/14 13:41:05;;;;;;;2.00;1.80;;;18.90;99.90;;;;;;4994237;28;20442;-88
2022/09/14 13:43:31;;;;;;;5.20;1.77;;;;;;;;;;4992026;28;20531;-86
2022/09/14 13:45:57;;;;;;;2.30;1.80;;;;;;;;;;4993851;28;20430;-87